createdAt,value
2022-11-17T00:00:17.905Z,100.00
2022-11-17T00:02:44.929Z,100.00
2022-11-17T00:05:11.721Z,100.00
2022-11-17T00:07:38.340Z,100.00
2022-11-17T00:10:05.552Z,100.00
2022-11-17T00:12:33.154Z,100.00
2022-11-17T00:15:00.023Z,100.00
2022-11-17T00:17:26.713Z,100.00
2022-11-17T00:19:53.397Z,100.00
2022-11-17T00:22:20.686Z,100.00
2022-11-17T00:24:48.553Z,100.00
2022-11-17T00:27:15.476Z,100.00
2022-11-17T00:29:42.112Z,100.00
2022-11-17T00:32:13.653Z,100.00
2022-11-17T00:34:40.649Z,100.00
2022-11-17T00:37:08.865Z,100.00
2022-11-17T00:39:35.537Z,100.00
2022-11-17T00:42:02.440Z,100.00
2022-11-17T00:44:29.818Z,100.00
2022-11-17T00:46:56.507Z,100.00
2022-11-17T00:49:23.613Z,100.00
2022-11-17T00:51:50.387Z,100.00
2022-11-17T00:54:17.048Z,100.00
2022-11-17T00:56:43.746Z,100.00
2022-11-17T00:59:10.921Z,100.00
2022-11-17T01:01:37.603Z,100.00
2022-11-17T01:04:04.635Z,100.00
2022-11-17T01:06:35.902Z,100.00
2022-11-17T01:09:05.640Z,100.00
2022-11-17T01:11:32.979Z,100.00
2022-11-17T01:14:00.803Z,100.00
2022-11-17T01:16:29.099Z,100.00
2022-11-17T01:19:01.385Z,100.00
2022-11-17T01:21:30.048Z,100.00
2022-11-17T01:23:58.770Z,100.00
2022-11-17T01:26:28.805Z,100.00
2022-11-17T01:28:55.715Z,100.00
2022-11-17T01:31:28.650Z,100.00
2022-11-17T01:33:55.988Z,100.00
2022-11-17T01:36:28.841Z,100.00
2022-11-17T01:38:55.672Z,100.00
2022-11-17T01:41:27.998Z,100.00
2022-11-17T01:43:57.465Z,100.00
2022-11-17T01:46:33.313Z,100.00
2022-11-17T01:49:16.443Z,100.00
2022-11-17T01:51:47.379Z,100.00
2022-11-17T01:54:18.339Z,100.00
2022-11-17T01:56:48.626Z,100.00
2022-11-17T01:59:27.703Z,100.00
2022-11-17T02:01:55.222Z,100.00
2022-11-17T02:04:25.989Z,100.00
2022-11-17T02:06:59.832Z,100.00
2022-11-17T02:09:27.870Z,100.00
2022-11-17T02:11:58.803Z,100.00
2022-11-17T02:14:25.432Z,100.00
2022-11-17T02:16:52.159Z,100.00
2022-11-17T02:19:21.335Z,100.00
2022-11-17T02:22:30.625Z,100.00
2022-11-17T02:25:12.247Z,100.00
2022-11-17T02:27:59.667Z,100.00
2022-11-17T02:30:34.037Z,100.00
2022-11-17T02:33:12.885Z,100.00
2022-11-17T02:36:00.582Z,100.00
2022-11-17T02:38:43.526Z,100.00
2022-11-17T02:41:35.972Z,100.00
2022-11-17T02:44:23.726Z,100.00
2022-11-17T02:47:01.969Z,100.00
2022-11-17T02:49:41.321Z,100.00
2022-11-17T02:52:09.219Z,100.00
2022-11-17T02:54:35.814Z,100.00
2022-11-17T02:57:02.428Z,100.00
2022-11-17T02:59:43.100Z,100.00
2022-11-17T03:02:09.690Z,100.00
2022-11-17T03:04:57.732Z,100.00
2022-11-17T03:07:30.310Z,100.00
2022-11-17T03:10:05.937Z,100.00
2022-11-17T03:12:58.677Z,100.00
2022-11-17T03:15:48.198Z,100.00
2022-11-17T03:18:53.190Z,100.00
2022-11-17T03:21:29.286Z,100.00
2022-11-17T03:24:12.029Z,100.00
2022-11-17T03:26:48.787Z,100.00
2022-11-17T03:29:19.600Z,100.00
2022-11-17T03:31:49.236Z,100.00
2022-11-17T03:34:20.629Z,100.00
2022-11-17T03:36:52.520Z,100.00
2022-11-17T03:39:31.819Z,100.00
2022-11-17T03:42:13.467Z,100.00
2022-11-17T03:44:43.700Z,100.00
2022-11-17T03:47:13.682Z,100.00
2022-11-17T03:49:51.134Z,100.00
2022-11-17T03:52:18.960Z,100.00
2022-11-17T03:54:45.742Z,100.00
2022-11-17T03:57:42.996Z,100.00
2022-11-17T04:00:15.965Z,100.00
2022-11-17T04:02:45.697Z,100.00
2022-11-17T04:05:14.668Z,100.00
2022-11-17T04:07:46.524Z,100.00
2022-11-17T04:10:18.965Z,100.00
2022-11-17T04:12:46.501Z,100.00
2022-11-17T04:15:13.623Z,100.00
2022-11-17T04:17:40.295Z,100.00
2022-11-17T04:20:07.596Z,100.00
2022-11-17T04:22:34.256Z,100.00
2022-11-17T04:25:00.838Z,100.00
2022-11-17T04:27:27.444Z,100.00
2022-11-17T04:29:54.016Z,100.00
2022-11-17T04:32:20.627Z,100.00
2022-11-17T04:34:47.278Z,100.00
2022-11-17T04:37:13.934Z,100.00
2022-11-17T04:39:40.510Z,100.00
2022-11-17T04:42:07.100Z,100.00
2022-11-17T04:44:33.695Z,100.00
2022-11-17T04:47:00.367Z,100.00
2022-11-17T04:49:27.028Z,100.00
2022-11-17T04:51:53.997Z,100.00
2022-11-17T04:54:22.992Z,100.00
2022-11-17T04:56:50.434Z,100.00
2022-11-17T04:59:17.499Z,100.00
2022-11-17T05:01:44.656Z,100.00
2022-11-17T05:04:13.297Z,100.00
2022-11-17T05:06:40.936Z,100.00
2022-11-17T05:09:10.846Z,100.00
2022-11-17T05:11:37.622Z,100.00
2022-11-17T05:14:04.256Z,100.00
2022-11-17T05:16:30.848Z,100.00
2022-11-17T05:18:57.424Z,100.00
2022-11-17T05:21:24.048Z,100.00
2022-11-17T05:23:50.657Z,100.00
2022-11-17T05:26:17.791Z,100.00
2022-11-17T05:28:44.402Z,100.00
2022-11-17T05:31:11.233Z,100.00
2022-11-17T05:33:38.181Z,100.00
2022-11-17T05:36:06.669Z,100.00
2022-11-17T05:38:33.286Z,100.00
2022-11-17T05:41:00.157Z,100.00
2022-11-17T05:43:27.268Z,100.00
2022-11-17T05:45:54.391Z,100.00
2022-11-17T05:48:21.362Z,100.00
2022-11-17T05:50:47.963Z,100.00
2022-11-17T05:53:14.545Z,100.00
2022-11-17T05:55:41.142Z,100.00
2022-11-17T05:58:18.535Z,100.00
2022-11-17T06:00:45.354Z,100.00
2022-11-17T06:03:26.406Z,100.00
2022-11-17T06:05:53.604Z,100.00
2022-11-17T06:08:20.507Z,100.00
2022-11-17T06:10:47.152Z,100.00
2022-11-17T06:13:13.737Z,100.00
2022-11-17T06:15:40.494Z,100.00
2022-11-17T06:18:18.191Z,100.00
2022-11-17T06:20:48.662Z,100.00
2022-11-17T06:23:19.936Z,100.00
2022-11-17T06:25:46.847Z,100.00
2022-11-17T06:28:17.418Z,100.00
2022-11-17T06:30:44.572Z,100.00
2022-11-17T06:33:15.590Z,100.00
2022-11-17T06:35:44.581Z,100.00
2022-11-17T06:38:11.193Z,100.00
2022-11-17T06:40:37.834Z,100.00
2022-11-17T06:43:04.402Z,100.00
2022-11-17T06:45:41.662Z,100.00
2022-11-17T06:48:09.728Z,100.00
2022-11-17T06:50:36.383Z,100.00
2022-11-17T06:53:06.361Z,100.00
2022-11-17T06:55:33.564Z,100.00
2022-11-17T06:58:02.175Z,100.00
2022-11-17T07:00:30.480Z,100.00
2022-11-17T07:03:06.531Z,100.00
2022-11-17T07:05:34.401Z,100.00
2022-11-17T07:08:03.700Z,100.00
2022-11-17T07:10:31.095Z,100.00
2022-11-17T07:12:58.133Z,100.00
2022-11-17T07:15:25.500Z,100.00
2022-11-17T07:17:52.554Z,100.00
2022-11-17T07:20:19.798Z,100.00
2022-11-17T07:22:46.652Z,100.00
2022-11-17T07:25:14.568Z,100.00
2022-11-17T07:27:43.830Z,100.00
2022-11-17T07:30:11.054Z,100.00
2022-11-17T07:32:37.655Z,100.00
2022-11-17T07:35:04.610Z,100.00
2022-11-17T07:37:31.430Z,100.00
2022-11-17T07:39:58.068Z,100.00
2022-11-17T07:42:24.754Z,100.00
2022-11-17T07:44:51.471Z,100.00
2022-11-17T07:47:18.166Z,100.00
2022-11-17T07:49:44.822Z,100.00
2022-11-17T07:52:11.444Z,100.00
2022-11-17T07:54:38.162Z,100.00
2022-11-17T07:57:04.908Z,100.00
2022-11-17T07:59:31.576Z,100.00
2022-11-17T08:01:58.250Z,100.00
2022-11-17T08:04:24.882Z,100.00
2022-11-17T08:06:51.543Z,100.00
2022-11-17T08:09:18.251Z,100.00
2022-11-17T08:11:45.066Z,100.00
2022-11-17T08:14:11.753Z,100.00
2022-11-17T08:16:38.444Z,100.00
2022-11-17T08:19:05.063Z,100.00
2022-11-17T08:21:31.925Z,100.00
2022-11-17T08:23:58.600Z,100.00
2022-11-17T08:26:25.261Z,100.00
2022-11-17T08:28:56.877Z,100.00
2022-11-17T08:31:25.651Z,100.00
2022-11-17T08:33:52.400Z,100.00
2022-11-17T08:36:19.110Z,100.00
2022-11-17T08:38:45.755Z,100.00
2022-11-17T08:41:12.447Z,100.00
2022-11-17T08:43:39.206Z,100.00
2022-11-17T08:46:05.956Z,100.00
2022-11-17T08:48:32.794Z,100.00
2022-11-17T08:51:07.929Z,100.00
2022-11-17T08:53:34.566Z,100.00
2022-11-17T08:56:01.172Z,100.00
2022-11-17T08:58:27.797Z,100.00
2022-11-17T09:00:54.502Z,100.00
2022-11-17T09:03:21.157Z,100.00
2022-11-17T09:05:47.824Z,100.00
2022-11-17T09:11:08.676Z,100.00
2022-11-17T09:13:36.207Z,100.00
2022-11-17T09:16:08.170Z,100.00
2022-11-17T09:18:36.117Z,100.00
2022-11-17T09:21:05.104Z,100.00
2022-11-17T09:23:32.036Z,100.00
2022-11-17T09:25:59.281Z,100.00
2022-11-17T09:28:26.423Z,100.00
2022-11-17T09:30:53.611Z,100.00
2022-11-17T09:33:20.218Z,100.00
2022-11-17T09:35:46.874Z,100.00
2022-11-17T09:38:13.502Z,100.00
2022-11-17T09:40:40.961Z,100.00
2022-11-17T09:43:28.381Z,100.00
2022-11-17T09:46:07.785Z,100.00
2022-11-17T09:49:02.689Z,100.00
2022-11-17T09:51:33.086Z,100.00
2022-11-17T09:54:10.426Z,100.00
2022-11-17T09:56:39.383Z,100.00
2022-11-17T09:59:10.806Z,100.00
2022-11-17T10:01:39.249Z,97.68
2022-11-17T10:04:11.684Z,99.01
2022-11-17T10:06:38.418Z,99.51
2022-11-17T10:09:29.491Z,99.09
2022-11-17T10:12:18.277Z,100.00
2022-11-17T10:14:47.681Z,100.00
2022-11-17T10:17:14.578Z,97.66
2022-11-17T10:19:42.657Z,100.00
2022-11-17T10:22:09.225Z,99.22
2022-11-17T10:24:45.890Z,100.00
2022-11-17T10:27:33.552Z,96.10
2022-11-17T10:30:04.342Z,94.55
2022-11-17T10:32:37.214Z,94.40
2022-11-17T10:35:16.490Z,96.55
2022-11-17T10:37:52.096Z,95.40
2022-11-17T10:40:25.254Z,92.20
2022-11-17T10:43:14.285Z,92.02
2022-11-17T10:45:51.670Z,96.66
2022-11-17T10:48:24.471Z,93.99
2022-11-17T10:50:55.762Z,92.85
2022-11-17T10:53:29.049Z,95.23
2022-11-17T10:56:04.149Z,90.17
2022-11-17T10:58:32.945Z,89.77
2022-11-17T11:01:02.422Z,89.22
2022-11-17T11:03:34.989Z,89.92
2022-11-17T11:06:16.159Z,88.02
2022-11-17T11:08:48.871Z,86.29
2022-11-17T11:11:36.506Z,88.51
2022-11-17T11:14:42.243Z,87.34
2022-11-17T11:17:17.128Z,87.83
2022-11-17T11:19:52.964Z,89.92
2022-11-17T11:22:53.601Z,93.00
2022-11-17T11:25:44.290Z,89.73
2022-11-17T11:28:48.131Z,89.56
2022-11-17T11:31:50.500Z,85.65
2022-11-17T11:34:33.518Z,89.55
2022-11-17T11:37:10.245Z,91.74
2022-11-17T11:39:53.274Z,88.35
2022-11-17T11:42:41.591Z,93.59
2022-11-17T11:45:24.150Z,88.69
2022-11-17T11:48:11.952Z,85.64
2022-11-17T11:50:41.941Z,91.60
2022-11-17T11:53:28.840Z,91.32
2022-11-17T11:56:10.113Z,87.54
2022-11-17T11:58:46.747Z,86.64
2022-11-17T12:01:15.586Z,87.88
2022-11-17T12:03:54.125Z,86.87
2022-11-17T12:06:37.669Z,88.12
2022-11-17T12:09:49.717Z,85.26
2022-11-17T12:12:20.766Z,88.55
2022-11-17T12:15:19.729Z,85.13
2022-11-17T12:17:54.769Z,87.57
2022-11-17T12:20:59.732Z,87.74
2022-11-17T12:23:35.074Z,88.68
2022-11-17T12:26:02.138Z,89.58
2022-11-17T12:28:38.345Z,87.68
2022-11-17T12:31:10.384Z,88.20
2022-11-17T12:34:00.532Z,90.27
2022-11-17T12:36:32.559Z,87.64
2022-11-17T12:39:04.615Z,89.85
2022-11-17T12:41:54.837Z,88.44
2022-11-17T12:44:33.746Z,85.27
2022-11-17T12:47:09.204Z,84.76
2022-11-17T12:50:06.644Z,87.39
2022-11-17T12:53:04.049Z,84.64
2022-11-17T12:55:48.531Z,87.22
2022-11-17T12:58:18.257Z,84.18
2022-11-17T13:00:54.553Z,83.89
2022-11-17T13:04:07.859Z,84.85
2022-11-17T13:06:36.304Z,82.21
2022-11-17T13:09:03.303Z,77.23
2022-11-17T13:11:30.282Z,77.71
2022-11-17T13:14:08.904Z,74.61
2022-11-17T13:16:37.098Z,77.56
2022-11-17T13:19:04.699Z,80.52
2022-11-17T13:21:32.754Z,79.07
2022-11-17T13:23:59.826Z,78.96
2022-11-17T13:26:28.779Z,81.54
2022-11-17T13:29:10.933Z,80.88
2022-11-17T13:31:37.528Z,82.56
2022-11-17T13:34:16.558Z,81.25
2022-11-17T13:36:55.182Z,85.68
2022-11-17T13:39:26.871Z,85.36
2022-11-17T13:41:55.606Z,84.47
2022-11-17T13:44:25.734Z,82.55
2022-11-17T13:46:52.333Z,84.95
2022-11-17T13:49:34.432Z,85.36
2022-11-17T13:52:02.426Z,84.98
2022-11-17T13:54:29.770Z,87.78
2022-11-17T13:57:05.080Z,86.52
2022-11-17T13:59:35.367Z,86.71
2022-11-17T14:02:17.157Z,84.25
2022-11-17T14:05:05.582Z,84.48
2022-11-17T14:07:34.570Z,86.82
2022-11-17T14:10:22.285Z,84.88
2022-11-17T14:12:53.606Z,84.36
2022-11-17T14:15:27.313Z,84.04
2022-11-17T14:18:03.805Z,87.40
2022-11-17T14:20:33.571Z,88.32
2022-11-17T14:23:16.499Z,89.77
2022-11-17T14:25:47.803Z,93.32
2022-11-17T14:28:19.819Z,93.73
2022-11-17T14:30:51.342Z,95.12
2022-11-17T14:33:18.419Z,93.53
2022-11-17T14:35:46.548Z,92.95
2022-11-17T14:38:16.347Z,93.75
2022-11-17T14:40:42.970Z,92.92
2022-11-17T14:43:09.575Z,92.56
2022-11-17T14:45:36.254Z,93.24
2022-11-17T14:48:04.288Z,94.35
2022-11-17T14:50:31.789Z,94.76
2022-11-17T14:52:58.665Z,95.89
2022-11-17T14:55:26.570Z,95.42
2022-11-17T14:57:53.493Z,97.46
2022-11-17T15:00:20.970Z,96.86
2022-11-17T15:02:47.810Z,96.78
2022-11-17T15:05:14.531Z,97.73
2022-11-17T15:07:41.197Z,98.03
2022-11-17T15:10:09.038Z,97.67
2022-11-17T15:12:35.879Z,96.64
2022-11-17T15:15:02.905Z,96.28
2022-11-17T15:17:29.542Z,96.98
2022-11-17T15:19:56.227Z,96.91
2022-11-17T15:22:23.013Z,96.48
2022-11-17T15:24:49.710Z,96.58
2022-11-17T15:27:16.851Z,99.09
2022-11-17T15:29:43.447Z,97.31
2022-11-17T15:32:10.151Z,97.50
2022-11-17T15:34:36.802Z,96.42
2022-11-17T15:37:03.513Z,97.61
2022-11-17T15:39:30.096Z,96.56
2022-11-17T15:41:56.756Z,96.08
2022-11-17T15:44:23.618Z,96.52
2022-11-17T15:46:50.257Z,97.36
2022-11-17T15:49:17.183Z,97.43
2022-11-17T15:51:44.131Z,99.19
2022-11-17T15:54:15.127Z,100.00
2022-11-17T15:56:47.002Z,98.95
2022-11-17T15:59:14.163Z,100.00
2022-11-17T16:01:41.119Z,99.61
2022-11-17T16:04:09.999Z,99.32
2022-11-17T16:06:38.839Z,99.16
2022-11-17T16:09:06.121Z,100.00
2022-11-17T16:11:33.581Z,99.79
2022-11-17T16:14:01.303Z,100.00
2022-11-17T16:16:31.096Z,100.00
2022-11-17T16:18:58.305Z,100.00
2022-11-17T16:21:25.645Z,98.77
2022-11-17T16:23:54.368Z,98.95
2022-11-17T16:26:22.759Z,100.00
2022-11-17T16:28:49.432Z,100.00
2022-11-17T16:31:22.288Z,100.00
2022-11-17T16:33:58.523Z,100.00
2022-11-17T16:36:31.377Z,100.00
2022-11-17T16:39:02.571Z,100.00
2022-11-17T16:41:32.755Z,100.00
2022-11-17T16:43:59.596Z,100.00
2022-11-17T16:46:28.731Z,100.00
2022-11-17T16:48:56.215Z,100.00
2022-11-17T16:51:23.390Z,100.00
2022-11-17T16:53:59.432Z,100.00
2022-11-17T16:56:26.076Z,99.21
2022-11-17T16:58:52.777Z,100.00
2022-11-17T17:01:21.894Z,100.00
2022-11-17T17:03:48.613Z,100.00
2022-11-17T17:06:17.703Z,100.00
2022-11-17T17:08:44.953Z,100.00
2022-11-17T17:11:14.030Z,100.00
2022-11-17T17:13:41.999Z,100.00
2022-11-17T17:16:14.603Z,100.00
2022-11-17T17:18:42.011Z,100.00
2022-11-17T17:21:13.550Z,100.00
2022-11-17T17:23:40.398Z,100.00
2022-11-17T17:26:08.140Z,100.00
2022-11-17T17:28:37.313Z,100.00
2022-11-17T17:31:04.707Z,100.00
2022-11-17T17:33:32.066Z,100.00
2022-11-17T17:36:07.720Z,100.00
2022-11-17T17:38:34.523Z,100.00
2022-11-17T17:41:12.940Z,100.00
2022-11-17T17:43:40.714Z,100.00
2022-11-17T17:46:15.303Z,100.00
2022-11-17T17:48:44.729Z,100.00
2022-11-17T17:51:17.492Z,100.00
2022-11-17T17:53:44.574Z,100.00
2022-11-17T17:56:13.830Z,100.00
2022-11-17T17:58:41.288Z,100.00
2022-11-17T18:01:07.992Z,100.00
2022-11-17T18:03:34.951Z,100.00
2022-11-17T18:06:02.183Z,100.00
2022-11-17T18:08:29.359Z,100.00
2022-11-17T18:11:00.478Z,100.00
2022-11-17T18:13:31.351Z,100.00
2022-11-17T18:15:59.370Z,100.00
2022-11-17T18:18:25.988Z,100.00
2022-11-17T18:21:04.497Z,100.00
2022-11-17T18:23:32.206Z,100.00
2022-11-17T18:25:58.822Z,100.00
2022-11-17T18:28:25.457Z,100.00
2022-11-17T18:30:52.040Z,100.00
2022-11-17T18:33:18.680Z,100.00
2022-11-17T18:35:45.308Z,100.00
2022-11-17T18:38:12.032Z,100.00
2022-11-17T18:40:38.789Z,100.00
2022-11-17T18:43:05.422Z,100.00
2022-11-17T18:45:32.059Z,100.00
2022-11-17T18:47:58.634Z,97.51
2022-11-17T18:50:25.250Z,97.95
2022-11-17T18:52:51.943Z,100.00
2022-11-17T18:55:18.554Z,100.00
2022-11-17T18:57:45.279Z,100.00
2022-11-17T19:00:12.644Z,100.00
2022-11-17T19:02:39.230Z,100.00
2022-11-17T19:05:06.245Z,100.00
2022-11-17T19:07:32.947Z,100.00
2022-11-17T19:09:59.745Z,100.00
2022-11-17T19:12:26.512Z,98.96
2022-11-17T19:14:53.125Z,97.71
2022-11-17T19:17:19.702Z,99.69
2022-11-17T19:19:46.309Z,100.00
2022-11-17T19:22:12.909Z,100.00
2022-11-17T19:24:39.542Z,100.00
2022-11-17T19:27:06.161Z,100.00
2022-11-17T19:29:32.775Z,100.00
2022-11-17T19:31:59.391Z,100.00
2022-11-17T19:34:26.103Z,100.00
2022-11-17T19:36:52.744Z,100.00
2022-11-17T19:39:19.654Z,100.00
2022-11-17T19:41:46.381Z,99.95
2022-11-17T19:44:13.146Z,100.00
2022-11-17T19:46:39.843Z,100.00
2022-11-17T19:49:07.009Z,100.00
2022-11-17T19:51:35.441Z,100.00
2022-11-17T19:54:04.262Z,100.00
2022-11-17T19:56:30.992Z,99.65
2022-11-17T19:58:57.623Z,98.51
2022-11-17T20:01:26.681Z,100.00
2022-11-17T20:03:54.822Z,100.00
2022-11-17T20:06:24.150Z,100.00
2022-11-17T20:08:50.763Z,99.00
2022-11-17T20:11:18.239Z,97.04
2022-11-17T20:13:45.320Z,99.13
2022-11-17T20:16:14.297Z,100.00
2022-11-17T20:18:42.027Z,100.00
2022-11-17T20:21:09.867Z,100.00
2022-11-17T20:23:38.135Z,100.00
2022-11-17T20:26:06.136Z,100.00
2022-11-17T20:28:34.770Z,100.00
2022-11-17T20:31:14.643Z,100.00
2022-11-17T20:33:42.974Z,100.00
2022-11-17T20:36:13.987Z,100.00
2022-11-17T20:38:40.684Z,100.00
2022-11-17T20:41:08.339Z,100.00
2022-11-17T20:43:35.272Z,100.00
2022-11-17T20:46:03.373Z,100.00
2022-11-17T20:48:30.839Z,100.00
2022-11-17T20:51:03.069Z,100.00
2022-11-17T20:53:30.521Z,100.00
2022-11-17T20:55:58.883Z,100.00
2022-11-17T20:58:27.002Z,100.00
2022-11-17T21:00:54.464Z,100.00
2022-11-17T21:03:21.438Z,100.00
2022-11-17T21:06:00.183Z,100.00
2022-11-17T21:08:30.438Z,100.00
2022-11-17T21:11:05.826Z,100.00
2022-11-17T21:13:34.010Z,100.00
2022-11-17T21:16:06.320Z,100.00
2022-11-17T21:18:33.178Z,100.00
2022-11-17T21:20:59.782Z,100.00
2022-11-17T21:23:27.475Z,100.00
2022-11-17T21:25:54.521Z,100.00
2022-11-17T21:28:21.174Z,100.00
2022-11-17T21:30:47.855Z,100.00
2022-11-17T21:33:14.446Z,100.00
2022-11-17T21:35:41.074Z,100.00
2022-11-17T21:38:07.694Z,100.00
2022-11-17T21:40:34.281Z,100.00
2022-11-17T21:43:00.883Z,100.00
2022-11-17T21:45:27.518Z,100.00
2022-11-17T21:47:59.266Z,100.00
2022-11-17T21:50:26.875Z,100.00
2022-11-17T21:52:53.458Z,100.00
2022-11-17T21:55:20.139Z,100.00
2022-11-17T21:57:50.785Z,100.00
2022-11-17T22:00:17.782Z,100.00
2022-11-17T22:02:44.405Z,100.00
2022-11-17T22:05:11.004Z,100.00
2022-11-17T22:07:37.675Z,100.00
2022-11-17T22:10:04.758Z,100.00
2022-11-17T22:12:31.353Z,100.00
2022-11-17T22:14:57.995Z,100.00
2022-11-17T22:17:24.577Z,100.00
2022-11-17T22:19:51.180Z,100.00
2022-11-17T22:22:17.818Z,100.00
2022-11-17T22:24:49.424Z,100.00
2022-11-17T22:27:16.534Z,100.00
2022-11-17T22:29:43.431Z,100.00
2022-11-17T22:32:10.187Z,100.00
2022-11-17T22:34:36.811Z,100.00
2022-11-17T22:37:03.408Z,100.00
2022-11-17T22:39:30.154Z,100.00
2022-11-17T22:41:56.777Z,100.00
2022-11-17T22:44:23.403Z,100.00
2022-11-17T22:46:50.106Z,100.00
2022-11-17T22:49:16.933Z,100.00
2022-11-17T22:51:43.798Z,100.00
2022-11-17T22:54:10.684Z,100.00
2022-11-17T22:56:37.507Z,100.00
2022-11-17T22:59:04.173Z,100.00
2022-11-17T23:01:30.972Z,100.00
2022-11-17T23:03:58.060Z,100.00
2022-11-17T23:06:24.670Z,100.00
2022-11-17T23:08:51.312Z,100.00
2022-11-17T23:14:10.435Z,100.00
2022-11-17T23:16:38.073Z,100.00
2022-11-17T23:19:05.726Z,100.00
2022-11-17T23:21:32.802Z,100.00
2022-11-17T23:23:59.398Z,100.00
2022-11-17T23:26:26.014Z,100.00
2022-11-17T23:28:52.636Z,100.00
2022-11-17T23:31:19.260Z,100.00
2022-11-17T23:33:47.708Z,100.00
2022-11-17T23:36:19.805Z,100.00
2022-11-17T23:38:47.263Z,100.00
2022-11-17T23:41:15.800Z,100.00
2022-11-17T23:43:42.589Z,100.00
2022-11-17T23:46:20.951Z,100.00
2022-11-17T23:48:47.836Z,100.00
2022-11-17T23:51:17.492Z,100.00
2022-11-17T23:53:44.563Z,100.00
2022-11-17T23:56:11.172Z,100.00
2022-11-17T23:58:38.372Z,100.00
